Time;durP1;ratioP1;P1;durP2;ratioP2;P2;SDS_P1;SDS_P2;PMS_P1;PMS_P2;Temp;Humidity;BMP_temperature;BMP_pressure;BME280_temperature;BME280_humidity;BME280_pressure;Samples;Min_cycle;Max_cycle;Signal;HPM_P1;HPM_P2
2022/05/12 00:00:03;;;;;;;6.60;0.85;;;13.50;92.90;;;;;;5014283;28;20038;-80
2022/05/12 00:02:29;;;;;;;7.22;0.93;;;13.50;92.90;;;;;;4997182;28;20030;-84
2022/05/12 00:04:55;;;;;;;6.20;1.00;;;13.40;93.00;;;;;;5014406;28;20109;-80
2022/05/12 00:07:21;;;;;;;4.03;0.82;;;13.40;93.00;;;;;;4964633;28;20171;-79
2022/05/12 00:09:46;;;;;;;5.53;1.25;;;13.40;93.10;;;;;;5012990;28;20029;-83
2022/05/12 00:12:12;;;;;;;11.05;1.17;;;13.30;93.00;;;;;;5012965;28;20029;-82
2022/05/12 00:14:39;;;;;;;10.95;1.20;;;13.30;92.90;;;;;;5013011;28;20382;-81
2022/05/12 00:17:05;;;;;;;6.25;0.95;;;13.30;93.00;;;;;;5012942;28;20034;-84
2022/05/12 00:19:31;;;;;;;3.05;0.63;;;13.30;92.90;;;;;;5014271;28;20032;-85
2022/05/12 00:21:57;;;;;;;6.43;0.88;;;13.10;93.00;;;;;;5012810;28;20189;-84
2022/05/12 00:24:23;;;;;;;9.85;1.58;;;13.10;93.00;;;;;;5013981;28;20065;-82
2022/05/12 00:26:49;;;;;;;7.20;1.15;;;13.10;93.30;;;;;;4996353;28;20080;-83
2022/05/12 00:29:14;;;;;;;4.90;1.00;;;13.10;93.00;;;;;;5013888;28;20488;-82
2022/05/12 00:31:42;;;;;;;4.53;1.13;;;13.00;93.10;;;;;;4996446;28;20112;-83
2022/05/12 00:34:09;;;;;;;6.03;0.98;;;13.00;92.90;;;;;;5012558;28;20026;-83
2022/05/12 00:36:36;;;;;;;8.25;1.20;;;13.00;92.90;;;;;;5012713;28;20524;-78
2022/05/12 00:39:03;;;;;;;4.88;0.90;;;13.00;92.80;;;;;;5013786;28;20058;-85
2022/05/12 00:41:28;;;;;;;6.10;0.88;;;12.90;92.80;;;;;;5013489;28;20050;-84
2022/05/12 00:43:58;;;;;;;7.18;1.17;;;12.80;92.80;;;;;;5012524;28;20427;-83
2022/05/12 00:46:26;;;;;;;7.97;1.10;;;12.80;92.80;;;;;;5013925;28;20022;-80
2022/05/12 00:48:55;;;;;;;8.70;0.77;;;12.70;92.80;;;;;;5012437;28;20037;-82
2022/05/12 00:51:28;;;;;;;7.60;0.95;;;12.80;92.80;;;;;;4995764;28;20026;-81
2022/05/12 00:53:57;;;;;;;6.30;1.27;;;12.70;92.90;;;;;;5013489;28;20112;-79
2022/05/12 00:56:24;;;;;;;8.25;1.13;;;12.60;92.80;;;;;;5013599;28;20113;-81
2022/05/12 00:59:00;;;;;;;5.25;1.13;;;12.60;93.00;;;;;;4963906;28;20382;-81
2022/05/12 01:01:26;;;;;;;9.43;1.33;;;12.50;93.00;;;;;;5012204;28;20092;-81
2022/05/12 01:03:53;;;;;;;4.60;1.08;;;12.50;93.40;;;;;;4996183;28;20509;-82
2022/05/12 01:06:19;;;;;;;7.22;1.13;;;12.40;93.20;;;;;;5012335;28;20026;-79
2022/05/12 01:08:45;;;;;;;10.50;2.15;;;12.40;93.30;;;;;;5013661;28;20026;-81
2022/05/12 01:11:17;;;;;;;6.75;1.30;;;12.40;93.40;;;;;;4996105;28;20042;-81
2022/05/12 01:13:47;;;;;;;10.85;1.85;;;12.30;93.50;;;;;;5013401;28;20040;-82
2022/05/12 01:16:32;;;;;;;7.70;1.80;;;12.30;93.40;;;;;;5012388;28;20393;-79
2022/05/12 01:18:58;;;;;;;13.52;1.30;;;12.30;93.50;;;;;;5013542;28;20056;-79
2022/05/12 01:21:24;;;;;;;10.55;1.58;;;12.30;93.50;;;;;;5012025;28;20034;-83
2022/05/12 01:23:51;;;;;;;8.15;1.08;;;12.30;93.50;;;;;;4963587;28;20026;-79
2022/05/12 01:26:17;;;;;;;12.13;1.38;;;12.20;93.50;;;;;;4963906;28;20064;-79
2022/05/12 01:28:43;;;;;;;10.82;1.20;;;12.20;93.60;;;;;;4995591;28;20025;-79
2022/05/12 01:31:14;;;;;;;6.32;1.00;;;12.10;93.50;;;;;;5013280;28;20034;-79
2022/05/12 01:33:39;;;;;;;6.53;1.23;;;12.10;93.70;;;;;;4980157;28;20494;-80
2022/05/12 01:36:05;;;;;;;9.13;1.27;;;12.10;93.70;;;;;;4995567;28;20121;-78
2022/05/12 01:38:31;;;;;;;9.75;1.65;;;12.10;93.70;;;;;;4995745;28;20030;-82
2022/05/12 01:40:56;;;;;;;4.35;0.95;;;12.00;93.60;;;;;;5011428;28;20128;-82
2022/05/12 01:43:22;;;;;;;7.25;1.20;;;12.00;93.70;;;;;;4995900;28;20113;-78
2022/05/12 01:45:47;;;;;;;3.47;0.88;;;12.00;93.80;;;;;;4995517;28;20125;-78
2022/05/12 01:48:14;;;;;;;6.88;1.15;;;12.00;93.80;;;;;;5013005;28;20065;-83
2022/05/12 01:50:42;;;;;;;9.35;1.35;;;11.90;94.00;;;;;;4995549;28;20037;-79
2022/05/12 01:53:11;;;;;;;6.80;1.02;;;11.90;94.00;;;;;;5011658;28;20061;-79
2022/05/12 01:55:38;;;;;;;7.47;1.38;;;11.90;94.10;;;;;;5012972;28;20432;-79
2022/05/12 01:58:04;;;;;;;4.80;0.90;;;11.90;94.10;;;;;;5011757;28;20030;-78
2022/05/12 02:00:30;;;;;;;7.13;1.27;;;11.90;94.10;;;;;;5011636;28;20029;-78
2022/05/12 02:03:00;;;;;;;9.70;1.88;;;11.80;94.20;;;;;;5013094;28;20033;-78
2022/05/12 02:05:30;;;;;;;9.60;1.42;;;11.80;94.30;;;;;;5022879;28;20037;-79
2022/05/12 02:07:55;;;;;;;11.63;1.85;;;11.70;94.20;;;;;;5046599;28;20477;-78
2022/05/12 02:10:29;;;;;;;15.40;2.92;;;11.70;94.30;;;;;;5023411;28;20045;-79
2022/05/12 02:12:55;;;;;;;7.05;1.38;;;11.70;94.50;;;;;;5013342;28;20033;-79
2022/05/12 02:15:21;;;;;;;7.65;2.13;;;11.70;94.50;;;;;;5014547;28;20021;-79
2022/05/12 02:17:48;;;;;;;9.63;1.92;;;11.70;94.60;;;;;;4998547;28;20524;-79
2022/05/12 02:20:14;;;;;;;7.30;1.70;;;11.60;94.50;;;;;;5015200;28;20033;-79
2022/05/12 02:22:40;;;;;;;7.93;2.10;;;11.60;94.70;;;;;;5014857;28;20018;-84
2022/05/12 02:25:07;;;;;;;6.30;2.25;;;11.50;94.90;;;;;;5015943;28;20040;-80
2022/05/12 02:27:32;;;;;;;11.00;2.13;;;11.50;95.10;;;;;;4998454;28;20026;-79
2022/05/12 02:29:58;;;;;;;8.70;2.33;;;11.50;95.10;;;;;;4998591;28;20037;-79
2022/05/12 02:32:27;;;;;;;7.60;1.80;;;11.50;95.10;;;;;;5015932;28;20037;-79
2022/05/12 02:34:53;;;;;;;5.43;2.27;;;11.40;95.10;;;;;;5014560;28;20124;-79
2022/05/12 02:37:19;;;;;;;9.43;2.60;;;11.40;95.00;;;;;;4998418;28;20029;-79
2022/05/12 02:39:45;;;;;;;10.03;1.93;;;11.40;95.00;;;;;;5015517;28;20041;-79
2022/05/12 02:42:11;;;;;;;10.20;2.10;;;11.40;95.10;;;;;;4997976;28;20053;-79
2022/05/12 02:44:37;;;;;;;11.13;2.27;;;11.40;95.20;;;;;;5014340;28;20026;-79
2022/05/12 02:47:05;;;;;;;6.03;1.88;;;11.30;95.20;;;;;;4997946;28;20026;-78
2022/05/12 02:49:31;;;;;;;11.17;2.93;;;11.40;95.30;;;;;;5014704;28;20022;-78
2022/05/12 02:51:56;;;;;;;11.05;2.47;;;11.40;95.40;;;;;;5014298;28;20437;-79
2022/05/12 02:54:22;;;;;;;9.15;2.70;;;11.20;95.40;;;;;;5015515;28;20103;-79
2022/05/12 02:56:49;;;;;;;8.53;2.53;;;11.40;95.50;;;;;;5015523;28;20036;-78
2022/05/12 02:59:17;;;;;;;8.52;2.78;;;11.30;95.60;;;;;;4999554;28;20030;-78
2022/05/12 03:01:43;;;;;;;8.43;2.90;;;11.30;96.00;;;;;;5033911;28;20063;-78
2022/05/12 03:04:09;;;;;;;11.07;3.10;;;11.20;95.90;;;;;;5016242;28;20026;-79
2022/05/12 03:06:34;;;;;;;6.70;2.07;;;11.20;95.80;;;;;;5033355;28;20022;-79
2022/05/12 03:09:00;;;;;;;11.40;3.30;;;11.20;95.80;;;;;;5033598;28;20501;-79
2022/05/12 03:11:26;;;;;;;17.90;3.30;;;11.20;95.80;;;;;;5033678;28;20065;-79
2022/05/12 03:13:51;;;;;;;11.88;3.88;;;11.20;95.80;;;;;;5034150;28;20539;-78
2022/05/12 03:16:19;;;;;;;11.35;3.33;;;11.20;96.00;;;;;;5016659;28;20075;-79
2022/05/12 03:18:51;;;;;;;8.53;2.93;;;11.10;96.00;;;;;;5034743;28;20036;-79
2022/05/12 03:21:18;;;;;;;12.70;3.30;;;11.20;96.00;;;;;;5033299;28;20029;-79
2022/05/12 03:23:44;;;;;;;7.83;3.17;;;11.20;96.00;;;;;;5034703;28;20022;-78
2022/05/12 03:26:10;;;;;;;8.05;2.95;;;11.10;96.00;;;;;;5000783;28;20022;-79
2022/05/12 03:28:37;;;;;;;9.48;3.47;;;11.10;96.00;;;;;;5034572;28;20466;-79
2022/05/12 03:31:03;;;;;;;11.57;3.17;;;11.20;96.00;;;;;;5033335;28;20536;-79
2022/05/12 03:33:29;;;;;;;10.32;3.78;;;11.20;96.30;;;;;;5034637;28;20028;-78
2022/05/12 03:35:55;;;;;;;8.87;3.20;;;11.10;96.00;;;;;;5016826;28;20374;-78
2022/05/12 03:38:21;;;;;;;16.05;3.55;;;11.10;96.10;;;;;;5034394;28;20041;-79
2022/05/12 03:40:47;;;;;;;11.40;4.17;;;11.10;96.10;;;;;;5034154;28;20037;-78
2022/05/12 03:46:07;;;;;;;11.50;3.50;;;11.10;96.30;;;;;;5010613;28;20025;-78
2022/05/12 03:48:36;;;;;;;10.77;3.83;;;11.10;96.30;;;;;;5034527;28;20026;-78
2022/05/12 03:51:02;;;;;;;8.30;4.00;;;11.20;96.40;;;;;;5034075;28;20034;-79
2022/05/12 03:53:28;;;;;;;8.45;3.75;;;11.10;96.40;;;;;;5016633;28;20116;-78
2022/05/12 03:55:54;;;;;;;10.55;3.47;;;11.10;96.50;;;;;;5032842;28;20131;-79
2022/05/12 03:58:20;;;;;;;10.40;3.65;;;11.00;96.50;;;;;;5016444;28;20026;-78
2022/05/12 04:00:48;;;;;;;10.23;4.27;;;11.10;96.70;;;;;;5016356;28;20461;-79
2022/05/12 04:03:14;;;;;;;10.07;4.87;;;11.00;96.70;;;;;;5033866;28;20036;-79
2022/05/12 04:05:40;;;;;;;8.20;3.90;;;11.00;96.90;;;;;;5016322;28;20034;-79
2022/05/12 04:08:05;;;;;;;8.23;3.75;;;11.00;97.00;;;;;;5016324;28;20037;-79
2022/05/12 04:10:32;;;;;;;7.40;3.47;;;11.00;96.70;;;;;;5016242;28;20060;-79
2022/05/12 04:12:58;;;;;;;11.17;4.03;;;11.00;96.70;;;;;;5033771;28;20072;-79
2022/05/12 04:15:24;;;;;;;11.13;4.20;;;11.00;96.80;;;;;;5032492;28;20029;-78
2022/05/12 04:17:58;;;;;;;9.00;3.63;;;11.00;96.80;;;;;;5016140;28;20033;-79
2022/05/12 04:20:25;;;;;;;7.38;3.25;;;11.00;96.80;;;;;;5034050;28;20021;-79
2022/05/12 04:22:51;;;;;;;9.60;3.83;;;11.10;96.90;;;;;;5033975;28;20049;-79
2022/05/12 04:25:17;;;;;;;10.27;3.07;;;11.10;96.90;;;;;;5033528;28;20107;-80
2022/05/12 04:27:43;;;;;;;9.17;3.17;;;11.10;97.00;;;;;;4999407;28;20029;-79
2022/05/12 04:30:11;;;;;;;9.67;3.20;;;11.10;97.00;;;;;;5015705;28;20434;-79
2022/05/12 04:32:37;;;;;;;6.43;3.17;;;11.10;97.20;;;;;;5033141;28;20065;-81
2022/05/12 04:35:11;;;;;;;6.43;3.23;;;11.10;96.90;;;;;;5014216;28;20426;-79
2022/05/12 04:37:37;;;;;;;9.50;3.85;;;11.20;96.90;;;;;;5032461;28;20524;-80
2022/05/12 04:40:19;;;;;;;7.73;3.37;;;11.20;97.00;;;;;;5023801;28;20044;-79
2022/05/12 04:42:48;;;;;;;10.70;4.30;;;11.20;97.00;;;;;;5032413;28;20397;-79
2022/05/12 04:45:14;;;;;;;8.43;3.40;;;11.20;97.00;;;;;;5026776;28;20025;-79
2022/05/12 04:47:44;;;;;;;8.20;2.80;;;11.20;96.90;;;;;;5012029;28;20381;-78
2022/05/12 04:50:13;;;;;;;8.07;3.13;;;11.20;96.90;;;;;;5025237;28;20052;-79
2022/05/12 04:52:39;;;;;;;6.10;2.37;;;11.20;96.90;;;;;;5029914;28;20378;-79
2022/05/12 04:55:05;;;;;;;6.47;2.87;;;11.20;97.10;;;;;;5030843;28;20033;-79
2022/05/12 04:57:38;;;;;;;6.53;2.85;;;11.20;97.00;;;;;;5031824;28;20029;-79
2022/05/12 05:00:06;;;;;;;9.48;3.63;;;11.30;97.00;;;;;;5012845;28;20488;-75
2022/05/12 05:02:31;;;;;;;7.33;2.20;;;11.30;97.10;;;;;;5031274;28;20057;-76
2022/05/12 05:04:57;;;;;;;6.80;3.03;;;11.30;97.00;;;;;;5009756;28;20099;-75
2022/05/12 05:07:24;;;;;;;6.50;2.55;;;11.30;97.00;;;;;;5019710;28;20068;-76
2022/05/12 05:09:50;;;;;;;7.10;2.67;;;11.30;97.10;;;;;;4998509;28;20029;-75
2022/05/12 05:12:16;;;;;;;5.83;2.80;;;11.40;97.10;;;;;;5013997;28;20508;-75
2022/05/12 05:14:42;;;;;;;7.47;2.20;;;11.40;97.10;;;;;;5024995;28;20029;-75
2022/05/12 05:17:08;;;;;;;6.40;2.83;;;11.40;97.10;;;;;;5020245;28;20034;-76
2022/05/12 05:19:35;;;;;;;7.13;2.85;;;11.40;97.10;;;;;;5011630;28;20034;-75
2022/05/12 05:22:01;;;;;;;12.82;2.78;;;11.40;97.20;;;;;;5012421;28;20050;-76
2022/05/12 05:24:26;;;;;;;7.22;2.65;;;11.40;97.20;;;;;;5011921;28;20442;-75
2022/05/12 05:26:52;;;;;;;10.77;3.42;;;11.50;97.20;;;;;;5013338;28;20018;-75
2022/05/12 05:29:18;;;;;;;12.05;3.65;;;11.50;97.20;;;;;;5013512;28;20030;-74
2022/05/12 05:31:43;;;;;;;8.30;3.70;;;11.60;97.30;;;;;;5013078;28;20474;-75
2022/05/12 05:34:09;;;;;;;9.85;4.15;;;11.60;97.30;;;;;;5013817;28;20030;-75
2022/05/12 05:36:39;;;;;;;6.97;2.92;;;11.60;97.40;;;;;;5032918;28;20489;-74
2022/05/12 05:39:06;;;;;;;10.48;3.53;;;11.60;97.50;;;;;;5001716;28;20022;-75
2022/05/12 05:41:32;;;;;;;9.82;3.50;;;11.70;97.60;;;;;;5036218;28;20072;-74
2022/05/12 05:43:57;;;;;;;8.70;3.00;;;11.70;97.80;;;;;;5035366;28;20529;-77
2022/05/12 05:46:24;;;;;;;10.20;3.88;;;11.70;97.80;;;;;;4986858;28;20026;-77
2022/05/12 05:48:51;;;;;;;9.35;3.35;;;11.80;98.10;;;;;;5036453;28;20087;-78
2022/05/12 05:54:00;;;;;;;11.90;4.53;;;11.90;98.00;;;;;;5036790;28;20072;-77
2022/05/12 05:56:26;;;;;;;13.57;4.13;;;12.00;98.10;;;;;;5035211;28;20057;-78
2022/05/12 05:58:52;;;;;;;8.63;4.13;;;12.00;98.10;;;;;;5002291;28;20115;-77
2022/05/12 06:01:18;;;;;;;10.07;4.43;;;12.00;98.20;;;;;;5002148;28;20033;-77
2022/05/12 06:03:43;;;;;;;10.80;4.50;;;12.10;98.20;;;;;;5002220;28;20030;-78
2022/05/12 06:06:09;;;;;;;13.43;4.88;;;12.20;98.30;;;;;;5036353;28;20029;-78
2022/05/12 06:08:35;;;;;;;11.05;4.57;;;12.30;98.30;;;;;;5001866;28;20025;-78
2022/05/12 06:11:04;;;;;;;9.95;4.45;;;12.40;98.30;;;;;;5002237;28;20116;-78
2022/05/12 06:13:32;;;;;;;12.77;5.00;;;12.40;98.30;;;;;;5002376;28;20041;-78
2022/05/12 06:15:58;;;;;;;12.95;4.93;;;12.50;98.30;;;;;;5018373;28;20091;-77
2022/05/12 06:18:24;;;;;;;10.65;4.50;;;12.50;98.20;;;;;;5018112;28;20119;-79
2022/05/12 06:20:50;;;;;;;11.25;4.80;;;12.60;98.30;;;;;;5017859;28;20030;-79
2022/05/12 06:23:17;;;;;;;16.85;5.00;;;12.70;98.30;;;;;;5035663;28;20030;-78
2022/05/12 06:25:44;;;;;;;13.43;4.88;;;12.70;98.20;;;;;;5035734;28;20033;-78
2022/05/12 06:28:10;;;;;;;14.32;5.07;;;12.80;98.20;;;;;;5035823;28;20036;-77
2022/05/12 06:30:36;;;;;;;8.90;4.38;;;12.90;98.10;;;;;;5035381;28;20021;-78
2022/05/12 06:33:03;;;;;;;12.73;4.38;;;12.90;98.00;;;;;;5017999;28;20120;-78
2022/05/12 06:35:28;;;;;;;7.80;3.85;;;12.90;97.90;;;;;;5035828;28;20036;-79
2022/05/12 06:37:54;;;;;;;11.18;4.95;;;13.00;97.80;;;;;;5017813;28;20113;-79
2022/05/12 06:40:20;;;;;;;12.70;3.95;;;13.10;97.70;;;;;;5034041;28;20037;-80
2022/05/12 06:42:54;;;;;;;13.23;4.07;;;13.10;97.70;;;;;;5035378;28;20080;-76
2022/05/12 06:45:21;;;;;;;10.80;4.00;;;13.20;97.60;;;;;;5034145;28;20060;-75
2022/05/12 06:47:50;;;;;;;12.52;4.68;;;13.30;97.50;;;;;;5035468;28;20087;-77
2022/05/12 06:50:28;;;;;;;10.95;4.82;;;13.30;97.40;;;;;;5017419;28;20065;-78
2022/05/12 06:52:54;;;;;;;11.75;3.63;;;13.40;97.20;;;;;;5035335;28;20584;-78
2022/05/12 06:55:20;;;;;;;9.73;4.22;;;13.40;97.10;;;;;;5034218;28;20029;-77
2022/05/12 06:57:47;;;;;;;9.07;4.22;;;13.50;97.10;;;;;;5035174;28;20036;-80
2022/05/12 07:00:16;;;;;;;10.60;4.03;;;13.50;97.30;;;;;;5035112;28;20102;-77
2022/05/12 07:02:44;;;;;;;8.40;3.97;;;13.60;97.00;;;;;;5028524;28;20038;-81
2022/05/12 07:05:11;;;;;;;10.27;3.67;;;13.60;96.80;;;;;;5030192;28;20026;-81
2022/05/12 07:07:37;;;;;;;8.00;3.58;;;13.60;96.70;;;;;;5014781;28;20034;-81
2022/05/12 07:10:05;;;;;;;11.55;3.85;;;13.80;96.60;;;;;;5013971;28;20049;-81
2022/05/12 07:12:30;;;;;;;10.60;3.10;;;13.90;96.40;;;;;;5013978;28;20037;-77
2022/05/12 07:14:58;;;;;;;6.60;3.13;;;13.90;96.20;;;;;;5014061;28;20030;-79
2022/05/12 07:17:24;;;;;;;7.93;3.20;;;13.90;96.00;;;;;;5013638;28;20394;-77
2022/05/12 07:19:52;;;;;;;10.98;3.03;;;14.00;95.80;;;;;;5013588;28;20044;-77
2022/05/12 07:27:46;;;;;;;14.05;3.20;;;14.10;95.20;;;;;;5034920;28;19928;-77
2022/05/12 07:30:12;;;;;;;9.60;2.42;;;14.20;95.20;;;;;;5000964;28;20473;-78
2022/05/12 07:32:38;;;;;;;8.02;2.78;;;14.20;95.00;;;;;;5034426;28;20029;-77
2022/05/12 07:35:08;;;;;;;7.53;2.60;;;14.30;94.90;;;;;;5000752;28;20031;-80
2022/05/12 07:37:34;;;;;;;10.60;3.13;;;14.30;94.60;;;;;;5034519;28;20044;-80
2022/05/12 07:40:00;;;;;;;8.15;2.42;;;14.40;94.40;;;;;;5016674;28;20033;-78
2022/05/12 07:42:26;;;;;;;4.75;2.28;;;14.50;94.20;;;;;;5016661;28;20042;-78
2022/05/12 07:44:51;;;;;;;6.43;2.40;;;14.50;93.90;;;;;;5000351;28;20037;-77
2022/05/12 07:47:19;;;;;;;10.95;3.28;;;14.60;93.80;;;;;;5016718;28;20021;-78
2022/05/12 07:49:45;;;;;;;10.40;3.00;;;14.70;93.60;;;;;;5000860;28;20493;-80
2022/05/12 07:52:13;;;;;;;8.02;2.30;;;14.70;93.20;;;;;;5033017;28;20025;-77
2022/05/12 07:54:39;;;;;;;7.47;2.35;;;14.80;93.10;;;;;;5034152;28;20021;-77
2022/05/12 07:57:06;;;;;;;6.35;2.33;;;14.80;92.80;;;;;;5016688;28;20040;-80
2022/05/12 07:59:32;;;;;;;8.88;2.20;;;14.90;92.60;;;;;;5032829;28;20018;-77
2022/05/12 08:01:58;;;;;;;10.23;2.70;;;14.90;92.60;;;;;;5015641;28;20021;-81
2022/05/12 08:04:27;;;;;;;7.22;1.50;;;15.00;92.10;;;;;;5034098;28;20388;-80
2022/05/12 08:06:54;;;;;;;9.57;1.80;;;15.10;91.80;;;;;;5016297;28;20493;-79
2022/05/12 08:09:20;;;;;;;7.35;1.63;;;15.10;91.60;;;;;;5016422;28;20072;-78
2022/05/12 08:11:46;;;;;;;4.55;1.60;;;15.20;91.30;;;;;;5032666;28;20436;-80
2022/05/12 08:14:12;;;;;;;10.73;1.92;;;15.20;90.40;;;;;;5016362;28;20029;-80
2022/05/12 08:16:38;;;;;;;6.45;1.70;;;15.30;90.10;;;;;;5033845;28;20068;-79
2022/05/12 08:19:04;;;;;;;3.97;1.88;;;15.30;89.80;;;;;;5032579;28;20421;-79
2022/05/12 08:21:30;;;;;;;9.57;2.20;;;15.40;89.50;;;;;;5016110;28;20049;-79
2022/05/12 08:23:56;;;;;;;7.25;1.85;;;15.40;89.20;;;;;;5033610;28;20033;-80
2022/05/12 08:26:22;;;;;;;6.55;1.80;;;15.50;88.70;;;;;;5016036;28;20034;-77
2022/05/12 08:28:50;;;;;;;10.13;2.00;;;15.60;87.50;;;;;;5015988;28;20028;-80
2022/05/12 08:31:16;;;;;;;4.43;1.30;;;15.70;87.20;;;;;;5016101;28;20034;-79
2022/05/12 08:33:42;;;;;;;8.55;1.60;;;15.70;86.70;;;;;;5032305;28;20024;-79
2022/05/12 08:36:10;;;;;;;6.40;2.05;;;15.80;85.80;;;;;;5033533;28;20389;-82
2022/05/12 08:38:40;;;;;;;9.27;1.35;;;15.90;85.40;;;;;;5033366;28;20022;-80
2022/05/12 08:41:18;;;;;;;5.70;1.48;;;16.00;84.70;;;;;;5033433;28;20201;-78
2022/05/12 08:43:43;;;;;;;5.82;1.33;;;16.00;83.20;;;;;;5032022;28;20504;-81
2022/05/12 08:46:14;;;;;;;5.45;1.70;;;16.00;83.30;;;;;;5033293;28;20029;-80
2022/05/12 08:48:43;;;;;;;8.75;1.58;;;16.00;82.50;;;;;;5033355;28;20033;-79
2022/05/12 08:51:15;;;;;;;7.10;1.20;;;16.10;81.60;;;;;;5033383;28;20025;-78
2022/05/12 08:54:10;;;;;;;6.30;1.17;;;16.20;81.40;;;;;;5033335;28;20520;-80
2022/05/12 08:56:35;;;;;;;5.68;1.30;;;16.20;79.40;;;;;;5013504;28;20033;-80
2022/05/12 08:59:02;;;;;;;6.53;1.42;;;16.30;79.30;;;;;;5015740;28;20463;-79
2022/05/12 09:01:52;;;;;;;6.85;1.20;;;16.30;78.40;;;;;;5033149;28;20038;-81
2022/05/12 09:04:49;;;;;;;5.55;1.02;;;16.40;78.10;;;;;;5031885;28;20022;-79
2022/05/12 09:07:34;;;;;;;4.78;1.25;;;16.50;77.80;;;;;;5033327;28;20115;-81
2022/05/12 09:10:17;;;;;;;3.95;1.10;;;16.60;77.70;;;;;;5031862;28;20022;-79
2022/05/12 09:12:52;;;;;;;2.83;1.13;;;16.70;77.00;;;;;;5033527;28;20029;-80
2022/05/12 09:15:28;;;;;;;3.28;0.90;;;16.80;76.60;;;;;;5019489;28;20029;-80
2022/05/12 09:17:59;;;;;;;5.35;1.45;;;16.90;76.00;;;;;;5036987;28;20021;-79
2022/05/12 09:20:28;;;;;;;5.63;1.13;;;17.00;75.60;;;;;;5032539;28;20021;-81
2022/05/12 09:22:54;;;;;;;5.57;1.60;;;17.10;74.80;;;;;;5019802;28;20038;-79
2022/05/12 09:25:31;;;;;;;5.65;1.10;;;17.20;74.20;;;;;;5015534;28;20060;-79
2022/05/12 09:28:00;;;;;;;4.47;0.65;;;17.30;73.50;;;;;;5015821;28;20382;-79
2022/05/12 09:30:36;;;;;;;5.07;1.30;;;17.40;72.60;;;;;;5017062;28;20083;-81
2022/05/12 09:33:02;;;;;;;6.18;1.00;;;17.50;71.90;;;;;;5017007;28;20029;-78
2022/05/12 09:35:29;;;;;;;3.83;0.93;;;17.60;71.50;;;;;;4999452;28;20026;-82
2022/05/12 09:37:55;;;;;;;2.25;0.85;;;17.70;71.00;;;;;;5015695;28;20025;-81
2022/05/12 09:40:31;;;;;;;5.68;0.95;;;17.70;70.50;;;;;;5016747;28;20026;-80
2022/05/12 09:42:58;;;;;;;3.60;0.88;;;17.80;70.00;;;;;;5015332;28;20042;-81
2022/05/12 09:45:27;;;;;;;2.50;0.70;;;17.90;69.20;;;;;;4999582;28;20026;-80
2022/05/12 09:48:12;;;;;;;3.55;0.70;;;18.00;68.50;;;;;;5015483;28;20394;-78
2022/05/12 09:50:38;;;;;;;5.85;1.05;;;18.10;67.20;;;;;;5015323;28;20022;-80
2022/05/12 09:53:08;;;;;;;3.40;0.85;;;18.10;66.90;;;;;;5016636;28;20049;-79
2022/05/12 09:55:37;;;;;;;3.10;0.73;;;18.20;65.90;;;;;;5017098;28;20068;-80
2022/05/12 09:58:02;;;;;;;5.68;1.00;;;18.20;65.50;;;;;;5015212;28;20025;-82
2022/05/12 10:00:40;;;;;;;3.55;0.82;;;18.20;64.90;;;;;;5016294;28;20034;-81
2022/05/12 10:09:15;;;;;;;5.90;0.80;;;18.40;63.40;;;;;;5016299;28;20084;-79
2022/05/12 10:11:45;;;;;;;2.55;0.68;;;18.40;62.60;;;;;;5015134;28;20400;-78
2022/05/12 10:14:23;;;;;;;2.85;0.65;;;18.40;61.70;;;;;;5016094;28;20386;-81
2022/05/12 10:16:50;;;;;;;2.75;0.60;;;18.50;61.00;;;;;;5016166;28;20478;-81
2022/05/12 10:19:22;;;;;;;4.63;0.80;;;18.50;60.30;;;;;;4998548;28;20032;-80
2022/05/12 10:22:10;;;;;;;2.72;0.50;;;18.60;60.30;;;;;;5016202;28;20040;-82
2022/05/12 10:25:10;;;;;;;3.10;0.40;;;18.70;59.70;;;;;;5015041;28;20026;-81
2022/05/12 10:28:03;;;;;;;3.40;0.63;;;18.80;59.60;;;;;;5015649;28;20394;-80
2022/05/12 10:30:37;;;;;;;2.22;0.57;;;18.90;58.80;;;;;;5016057;28;20030;-80
2022/05/12 10:33:22;;;;;;;3.33;0.40;;;19.00;58.60;;;;;;5015889;28;20026;-81
2022/05/12 10:35:52;;;;;;;;;;;19.10;58.30;;;;;;5016298;28;20030;-78
2022/05/12 10:38:38;;;;;;;2.58;0.75;;;19.30;58.20;;;;;;5015650;28;19984;-79
2022/05/12 10:41:29;;;;;;;5.07;0.90;;;19.40;58.00;;;;;;5015643;28;20493;-81
2022/05/12 10:44:07;;;;;;;2.78;0.52;;;19.40;57.30;;;;;;5015727;28;20057;-80
2022/05/12 10:46:41;;;;;;;2.63;0.40;;;19.50;57.10;;;;;;5015671;28;20387;-78
2022/05/12 10:49:28;;;;;;;3.00;0.57;;;19.70;56.70;;;;;;5015706;28;20064;-80
2022/05/12 10:52:09;;;;;;;2.95;0.75;;;19.90;56.20;;;;;;5015503;28;20528;-80
2022/05/12 10:54:46;;;;;;;2.55;0.50;;;20.00;56.10;;;;;;5015576;28;20017;-81
2022/05/12 10:57:47;;;;;;;4.90;0.80;;;20.10;55.50;;;;;;5014087;28;20080;-81
2022/05/12 11:00:44;;;;;;;4.30;0.57;;;20.30;55.10;;;;;;4993905;28;20293;-78
2022/05/12 11:03:30;;;;;;;3.72;0.57;;;20.50;54.40;;;;;;5015474;28;20093;-82
2022/05/12 11:05:59;;;;;;;2.05;0.40;;;20.70;53.90;;;;;;5015355;28;20026;-78
2022/05/12 11:08:47;;;;;;;3.45;0.60;;;20.80;53.90;;;;;;5013995;28;20045;-82
2022/05/12 11:11:17;;;;;;;4.40;0.85;;;21.10;52.80;;;;;;5014094;28;20026;-82
2022/05/12 11:14:02;;;;;;;2.75;0.50;;;21.20;52.90;;;;;;5015199;28;20041;-82
2022/05/12 11:16:39;;;;;;;5.03;0.80;;;21.30;53.10;;;;;;5015263;28;20029;-82
2022/05/12 11:19:18;;;;;;;2.58;0.50;;;21.40;53.10;;;;;;5013948;28;20095;-79
2022/05/12 11:21:50;;;;;;;2.75;0.70;;;21.60;53.00;;;;;;5013680;28;20030;-82
2022/05/12 11:24:33;;;;;;;2.67;0.45;;;21.60;52.50;;;;;;5014916;28;20030;-79
2022/05/12 11:27:25;;;;;;;4.53;0.77;;;21.80;51.90;;;;;;5014897;28;20027;-82
2022/05/12 11:30:05;;;;;;;2.75;0.47;;;21.90;51.30;;;;;;5015224;28;20304;-81
2022/05/12 11:33:10;;;;;;;4.85;0.73;;;22.00;50.90;;;;;;5014817;28;20021;-81
2022/05/12 11:35:43;;;;;;;4.68;0.50;;;22.10;50.80;;;;;;5030051;28;20033;-82
2022/05/12 11:38:30;;;;;;;2.55;0.40;;;22.20;51.10;;;;;;5014989;28;20105;-80
2022/05/12 11:40:56;;;;;;;2.22;0.47;;;22.30;50.90;;;;;;5014545;28;20065;-81
2022/05/12 11:46:23;;;;;;;2.42;0.40;;;22.40;49.50;;;;;;5014703;28;20083;-83
2022/05/12 11:48:59;;;;;;;2.70;0.40;;;22.40;50.20;;;;;;5014500;28;20029;-82
2022/05/12 11:51:53;;;;;;;4.88;0.50;;;22.40;49.10;;;;;;5014326;28;20033;-81
2022/05/12 11:54:40;;;;;;;4.10;0.57;;;22.40;48.80;;;;;;5013419;28;20037;-82
2022/05/12 11:57:40;;;;;;;3.08;0.40;;;22.50;48.30;;;;;;5013098;28;20025;-82
2022/05/12 12:00:12;;;;;;;1.33;0.40;;;22.60;47.40;;;;;;5014307;28;20378;-83
2022/05/12 12:02:45;;;;;;;3.60;0.50;;;22.60;47.50;;;;;;5014312;28;20080;-82
2022/05/12 12:05:20;;;;;;;2.47;0.65;;;22.70;47.20;;;;;;5014206;28;20087;-81
2022/05/12 12:07:48;;;;;;;1.90;0.40;;;22.90;46.90;;;;;;5014100;28;20058;-81
2022/05/12 12:10:41;;;;;;;2.85;0.40;;;23.10;46.80;;;;;;5012838;28;20124;-82
2022/05/12 12:13:07;;;;;;;2.53;0.50;;;23.10;46.80;;;;;;5010379;28;20398;-80
2022/05/12 12:15:38;;;;;;;1.95;0.40;;;23.20;46.50;;;;;;5014125;28;20034;-82
2022/05/12 12:18:21;;;;;;;3.33;0.50;;;23.30;46.40;;;;;;5014301;28;20371;-80
2022/05/12 12:20:53;;;;;;;3.60;0.55;;;23.50;46.30;;;;;;5012709;28;20030;-78
2022/05/12 12:23:24;;;;;;;1.83;0.50;;;23.70;45.80;;;;;;4996527;28;20034;-75
2022/05/12 12:26:05;;;;;;;2.75;0.40;;;23.90;45.00;;;;;;5014056;28;20053;-75
2022/05/12 12:29:04;;;;;;;2.78;0.57;;;24.10;44.50;;;;;;5013133;28;20026;-75
2022/05/12 12:31:40;;;;;;;2.15;0.30;;;24.30;43.90;;;;;;5012604;28;20430;-75
2022/05/12 12:34:17;;;;;;;1.75;0.40;;;24.50;44.00;;;;;;5012940;28;20022;-75
2022/05/12 12:36:49;;;;;;;1.70;0.50;;;24.60;43.90;;;;;;5012618;28;20028;-76
2022/05/12 12:39:41;;;;;;;2.80;0.50;;;24.90;43.90;;;;;;5013746;28;20053;-75
2022/05/12 12:42:31;;;;;;;2.22;0.40;;;25.00;42.90;;;;;;5008572;28;20042;-74
2022/05/12 12:45:08;;;;;;;4.80;0.60;;;25.10;42.70;;;;;;4994116;28;20157;-75
2022/05/12 12:47:43;;;;;;;1.08;0.30;;;25.20;42.30;;;;;;4992437;28;20076;-75
2022/05/12 12:50:28;;;;;;;4.25;0.50;;;25.30;42.30;;;;;;4992378;28;20177;-76
2022/05/12 12:52:57;;;;;;;4.65;0.50;;;25.40;41.90;;;;;;4993820;28;20038;-75
2022/05/12 12:58:32;;;;;;;2.05;0.40;;;25.80;41.50;;;;;;4994174;28;20513;-83
2022/05/12 13:01:01;;;;;;;1.98;0.40;;;25.90;40.40;;;;;;5008886;28;20027;-83
2022/05/12 13:03:32;;;;;;;3.17;0.50;;;25.90;40.30;;;;;;5008916;28;20359;-83
2022/05/12 13:06:10;;;;;;;4.20;0.43;;;26.00;40.10;;;;;;5008923;28;20022;-83
2022/05/12 13:08:37;;;;;;;2.38;0.40;;;26.10;39.90;;;;;;5008866;28;20434;-81
2022/05/12 13:11:04;;;;;;;2.25;0.40;;;26.20;40.00;;;;;;4993865;28;20054;-80
2022/05/12 13:13:31;;;;;;;2.00;0.30;;;26.30;39.70;;;;;;4993850;28;20101;-78
2022/05/12 13:16:03;;;;;;;3.90;0.60;;;26.50;39.50;;;;;;5008978;28;20505;-83
2022/05/12 13:18:32;;;;;;;2.80;0.50;;;26.60;38.90;;;;;;4994206;28;20030;-83
2022/05/12 13:20:59;;;;;;;2.75;0.40;;;26.70;38.90;;;;;;4993696;28;20471;-80
2022/05/12 13:23:31;;;;;;;2.83;0.63;;;26.80;38.50;;;;;;4993596;28;20371;-81